Time;durP1;ratioP1;P1;durP2;ratioP2;P2;SDS_P1;SDS_P2;PMS_P1;PMS_P2;Temp;Humidity;BMP_temperature;BMP_pressure;BME280_temperature;BME280_humidity;BME280_pressure;Samples;Min_cycle;Max_cycle;Signal;HPM_P1;HPM_P2
2022/05/02 00:00:42;;;;;;;;;;;;;;;18.59;39.75;99608.78;4488385;31;35319;-65
2022/05/02 00:03:11;;;;;;;;;;;;;;;18.57;39.86;99601.84;4484231;32;35495;-65
2022/05/02 00:05:38;;;;;;;;;;;;;;;18.42;40.25;99606.22;4470369;31;33207;-68
2022/05/02 00:08:06;;;;;;;;;;;;;;;18.41;39.75;99594.53;4456763;31;32421;-65
2022/05/02 00:10:34;;;;;;;;;;;;;;;18.34;40.41;99609.78;4472814;31;35958;-71
2022/05/02 00:13:02;;;;;;;;;;;;;;;18.24;40.64;99612.66;4483178;32;34220;-68
2022/05/02 00:15:30;;;;;;;;;;;;;;;18.25;40.72;99600.78;4483574;31;33417;-68
2022/05/02 00:17:58;;;;;;;;;;;;;;;18.23;40.84;99591.97;4489505;31;34356;-68
2022/05/02 00:20:32;;;;;;;;;;;;;;;17.46;42.66;99594.81;4486223;31;34356;-69
2022/05/02 00:23:02;;;;;;;;;;;;;;;17.33;42.45;99599.78;4490927;31;33982;-68
2022/05/02 00:25:31;;;;;;;;;;;;;;;16.97;42.86;99608.03;4492631;31;33342;-72
2022/05/02 00:27:59;;;;;;;;;;;;;;;17.49;42.16;99603.59;4490494;31;33939;-65
2022/05/02 00:30:27;;;;;;;;;;;;;;;17.41;42.99;99601.72;4488164;31;34447;-66
2022/05/02 00:32:56;;;;;;;;;;;;;;;17.74;41.88;99608.09;4483071;32;33256;-66
2022/05/02 00:35:24;;;;;;;;;;;;;;;17.92;41.25;99591.78;4482752;31;33157;-66
2022/05/02 00:37:52;;;;;;;;;;;;;;;17.99;41.49;99600.91;4490128;31;33114;-66
2022/05/02 00:40:19;;;;;;;;;;;;;;;18.18;40.76;99602.50;4476583;31;33885;-66
2022/05/02 00:42:47;;;;;;;;;;;;;;;18.18;41.29;99602.50;4486863;31;32583;-68
2022/05/02 00:45:16;;;;;;;;;;;;;;;18.14;41.04;99598.44;4484266;31;32177;-66
2022/05/02 00:47:51;;;;;;;;;;;;;;;18.00;40.76;99601.75;4495485;31;33452;-66
2022/05/02 00:50:28;;;;;;;;;;;;;;;17.93;40.75;99607.84;4502086;31;33194;-69
2022/05/02 00:52:56;;;;;;;;;;;;;;;17.84;41.25;99606.13;4486282;31;33340;-68
2022/05/02 00:55:24;;;;;;;;;;;;;;;18.04;40.46;99604.00;4472230;32;33641;-66
2022/05/02 00:57:53;;;;;;;;;;;;;;;16.88;42.48;99618.97;4488929;31;33814;-64
2022/05/02 01:00:20;;;;;;;;;;;;;;;17.20;41.25;99618.31;4485844;31;34225;-67
2022/05/02 01:02:48;;;;;;;;;;;;;;;17.47;41.07;99617.31;4488960;31;34886;-67
2022/05/02 01:05:16;;;;;;;;;;;;;;;17.84;40.76;99610.69;4474125;31;33402;-65
2022/05/02 01:07:44;;;;;;;;;;;;;;;17.95;40.31;99609.56;4487408;31;34084;-66
2022/05/02 01:10:17;;;;;;;;;;;;;;;18.02;40.05;99614.13;4490562;31;33251;-67
2022/05/02 01:12:46;;;;;;;;;;;;;;;17.96;40.50;99613.94;4481331;31;33144;-68
2022/05/02 01:15:16;;;;;;;;;;;;;;;18.12;40.02;99606.69;4488314;31;32172;-68
2022/05/02 01:17:45;;;;;;;;;;;;;;;18.13;40.19;99607.53;4492120;31;32976;-68
2022/05/02 01:20:14;;;;;;;;;;;;;;;18.06;40.33;99609.22;4496807;31;34060;-68
2022/05/02 01:22:45;;;;;;;;;;;;;;;18.07;40.38;99609.06;4495482;31;33802;-72
2022/05/02 01:25:13;;;;;;;;;;;;;;;18.13;40.03;99604.84;4482785;32;33239;-70
2022/05/02 01:27:44;;;;;;;;;;;;;;;18.01;40.90;99606.16;4468568;32;33146;-71
2022/05/02 01:30:13;;;;;;;;;;;;;;;18.10;40.65;99607.88;4483708;32;34018;-73
2022/05/02 01:32:41;;;;;;;;;;;;;;;18.05;40.88;99602.97;4485461;31;34090;-71
2022/05/02 01:35:11;;;;;;;;;;;;;;;18.15;40.90;99609.06;4482222;32;33284;-70
2022/05/02 01:37:41;;;;;;;;;;;;;;;18.10;40.86;99621.41;4481620;32;34299;-74
2022/05/02 01:40:11;;;;;;;;;;;;;;;17.81;41.52;99613.72;4483449;31;34179;-70
2022/05/02 01:42:41;;;;;;;;;;;;;;;17.59;41.79;99610.59;4495238;31;33430;-71
2022/05/02 01:45:09;;;;;;;;;;;;;;;17.64;41.69;99613.63;4483650;31;32105;-73
2022/05/02 01:47:41;;;;;;;;;;;;;;;17.76;41.54;99614.19;4490046;31;32651;-70
2022/05/02 01:50:11;;;;;;;;;;;;;;;17.66;41.72;99621.63;4498793;31;35293;-70
2022/05/02 01:52:40;;;;;;;;;;;;;;;16.76;43.95;99632.75;4493397;31;32543;-73
2022/05/02 01:55:10;;;;;;;;;;;;;;;17.22;42.97;99632.53;4497459;31;33178;-70
2022/05/02 01:57:40;;;;;;;;;;;;;;;17.42;42.12;99627.75;4481618;32;34082;-70
2022/05/02 02:00:14;;;;;;;;;;;;;;;17.50;42.14;99622.38;4481470;32;32961;-70
2022/05/02 02:02:51;;;;;;;;;;;;;;;17.54;42.82;99615.62;4487088;31;34142;-70
2022/05/02 02:08:10;;;;;;;;;;;;;;;17.87;41.45;99616.62;4488881;31;35054;-69
2022/05/02 02:10:39;;;;;;;;;;;;;;;17.80;42.26;99623.72;4489130;31;34282;-70
2022/05/02 02:13:09;;;;;;;;;;;;;;;17.87;42.14;99613.06;4485774;31;33190;-70
2022/05/02 02:15:40;;;;;;;;;;;;;;;17.73;42.42;99614.53;4482034;31;32166;-72
2022/05/02 02:18:08;;;;;;;;;;;;;;;18.02;42.03;99608.72;4485582;31;33871;-70
2022/05/02 02:20:40;;;;;;;;;;;;;;;18.06;42.07;99618.19;4489924;31;34419;-66
2022/05/02 02:23:09;;;;;;;;;;;;;;;18.01;42.09;99622.41;4475913;31;34236;-67
2022/05/02 02:25:38;;;;;;;;;;;;;;;17.83;43.03;99615.25;4497454;31;33114;-71
2022/05/02 02:28:06;;;;;;;;;;;;;;;17.98;42.88;99620.91;4487408;31;33048;-67
2022/05/02 02:30:36;;;;;;;;;;;;;;;18.07;42.89;99624.47;4484455;31;34354;-66
2022/05/02 02:33:05;;;;;;;;;;;;;;;18.06;42.38;99622.78;4494014;31;34404;-71
2022/05/02 02:35:35;;;;;;;;;;;;;;;18.19;42.07;99611.44;4488533;31;32340;-68
2022/05/02 02:38:04;;;;;;;;;;;;;;;18.18;42.91;99613.31;4467246;31;33231;-69
2022/05/02 02:40:33;;;;;;;;;;;;;;;18.19;42.80;99615.00;4490486;31;32945;-70
2022/05/02 02:43:01;;;;;;;;;;;;;;;17.56;43.20;99619.03;4486084;31;33009;-68
2022/05/02 02:45:31;;;;;;;;;;;;;;;17.86;42.72;99616.81;4493305;31;33187;-69
2022/05/02 02:48:04;;;;;;;;;;;;;;;18.05;43.17;99611.09;4489727;31;34628;-70
2022/05/02 02:50:39;;;;;;;;;;;;;;;18.20;43.13;99610.44;4475990;31;33963;-69
2022/05/02 02:53:08;;;;;;;;;;;;;;;18.10;42.45;99616.84;4484002;31;33845;-68
2022/05/02 02:55:37;;;;;;;;;;;;;;;18.05;42.34;99618.38;4483602;31;33435;-69
2022/05/02 02:58:06;;;;;;;;;;;;;;;18.23;42.11;99623.62;4495209;31;34948;-72
2022/05/02 03:00:37;;;;;;;;;;;;;;;18.23;42.37;99610.09;4486452;31;33498;-71
2022/05/02 03:03:06;;;;;;;;;;;;;;;18.35;42.51;99617.72;4467576;31;33323;-70
2022/05/02 03:08:23;;;;;;;;;;;;;;;18.27;42.38;99617.75;4484154;31;35814;-70
2022/05/02 03:10:52;;;;;;;;;;;;;;;18.21;43.02;99617.56;4497762;31;33367;-71
2022/05/02 03:13:23;;;;;;;;;;;;;;;18.39;42.72;99610.97;4473556;31;33954;-70
2022/05/02 03:15:53;;;;;;;;;;;;;;;18.41;42.34;99607.25;4483048;32;32105;-70
2022/05/02 03:18:22;;;;;;;;;;;;;;;18.35;41.93;99603.34;4490569;31;34872;-70
2022/05/02 03:20:52;;;;;;;;;;;;;;;18.12;42.47;99609.41;4498561;31;34766;-71
2022/05/02 03:23:21;;;;;;;;;;;;;;;18.11;42.50;99612.31;4493314;31;34579;-75
2022/05/02 03:25:51;;;;;;;;;;;;;;;17.94;42.65;99614.09;4487492;31;33408;-75
2022/05/02 03:28:20;;;;;;;;;;;;;;;17.67;43.40;99609.75;4482215;31;33160;-75
2022/05/02 03:30:49;;;;;;;;;;;;;;;18.05;42.92;99612.97;4480551;31;33584;-75
2022/05/02 03:33:17;;;;;;;;;;;;;;;18.14;42.86;99611.97;4485595;31;34004;-71
2022/05/02 03:35:49;;;;;;;;;;;;;;;18.11;42.57;99602.31;4481454;32;34430;-70
2022/05/02 03:38:22;;;;;;;;;;;;;;;17.91;43.09;99609.00;4481026;31;33812;-71
2022/05/02 03:40:52;;;;;;;;;;;;;;;17.72;43.72;99596.59;4481993;32;33479;-70
2022/05/02 03:43:22;;;;;;;;;;;;;;;17.88;42.44;99595.81;4479070;32;34333;-69
2022/05/02 03:45:50;;;;;;;;;;;;;;;18.02;42.52;99594.34;4481419;32;32094;-71
2022/05/02 03:48:20;;;;;;;;;;;;;;;17.96;43.18;99592.28;4491255;31;33181;-75
2022/05/02 03:50:50;;;;;;;;;;;;;;;17.75;44.02;99598.09;4482168;31;33927;-76
2022/05/02 03:53:20;;;;;;;;;;;;;;;18.15;42.99;99591.97;4494511;31;33168;-75
2022/05/02 03:55:50;;;;;;;;;;;;;;;18.24;42.71;99584.72;4495542;31;32510;-71
2022/05/02 03:58:19;;;;;;;;;;;;;;;18.18;43.05;99593.50;4496956;31;34356;-71
2022/05/02 04:00:48;;;;;;;;;;;;;;;18.32;42.67;99588.25;4484640;31;33183;-69
2022/05/02 04:03:20;;;;;;;;;;;;;;;18.41;42.14;99589.13;4481909;31;33995;-70
2022/05/02 04:05:49;;;;;;;;;;;;;;;18.50;42.01;99592.69;4480110;31;32576;-69
2022/05/02 04:08:20;;;;;;;;;;;;;;;18.34;41.91;99594.38;4468518;32;33829;-70
2022/05/02 04:10:55;;;;;;;;;;;;;;;18.49;41.51;99588.28;4491342;31;35425;-71
2022/05/02 04:13:25;;;;;;;;;;;;;;;18.41;41.55;99594.53;4489126;31;33177;-69
2022/05/02 04:15:56;;;;;;;;;;;;;;;18.44;42.01;99587.94;4482518;31;33382;-71
2022/05/02 04:18:25;;;;;;;;;;;;;;;18.47;42.64;99593.03;4483060;31;34063;-71
2022/05/02 04:20:54;;;;;;;;;;;;;;;18.55;42.37;99587.59;4482715;31;33309;-70
2022/05/02 04:23:24;;;;;;;;;;;;;;;18.48;42.29;99589.28;4487158;31;32807;-70
2022/05/02 04:25:54;;;;;;;;;;;;;;;18.60;42.28;99596.06;4486051;31;33122;-71
2022/05/02 04:28:24;;;;;;;;;;;;;;;18.62;42.43;99591.34;4486500;31;33996;-73
2022/05/02 04:30:54;;;;;;;;;;;;;;;18.72;42.49;99596.59;4489743;31;33400;-71
2022/05/02 04:33:23;;;;;;;;;;;;;;;18.81;42.39;99599.16;4469269;32;34736;-71
2022/05/02 04:35:53;;;;;;;;;;;;;;;18.87;42.01;99605.72;4488651;31;32159;-70
2022/05/02 04:38:22;;;;;;;;;;;;;;;18.84;42.04;99603.34;4495144;31;32920;-72
2022/05/02 04:40:52;;;;;;;;;;;;;;;18.97;41.32;99602.84;4494118;31;33615;-72
2022/05/02 04:43:22;;;;;;;;;;;;;;;18.99;41.17;99596.22;4498956;31;33880;-74
2022/05/02 04:45:52;;;;;;;;;;;;;;;19.07;41.38;99592.66;4484177;31;33413;-74
2022/05/02 04:48:22;;;;;;;;;;;;;;;19.14;41.27;99600.97;4488647;31;33799;-72
2022/05/02 04:50:52;;;;;;;;;;;;;;;19.11;42.03;99598.59;4487150;31;32930;-72
2022/05/02 04:53:22;;;;;;;;;;;;;;;19.18;42.01;99605.00;4485564;31;34217;-72
2022/05/02 04:55:52;;;;;;;;;;;;;;;19.29;41.42;99610.03;4483416;31;32571;-75
2022/05/02 04:58:22;;;;;;;;;;;;;;;19.09;42.94;99617.72;4469699;32;33945;-71
2022/05/02 05:00:52;;;;;;;;;;;;;;;19.24;41.57;99618.72;4485855;31;34410;-75
2022/05/02 05:03:22;;;;;;;;;;;;;;;19.11;40.73;99621.13;4467078;31;34289;-75
2022/05/02 05:05:57;;;;;;;;;;;;;;;18.99;40.66;99627.94;4488958;31;34350;-71
2022/05/02 05:08:28;;;;;;;;;;;;;;;19.36;40.00;99621.06;4484869;31;34107;-71
2022/05/02 05:11:05;;;;;;;;;;;;;;;19.16;40.09;99626.03;4489898;31;33202;-71
2022/05/02 05:13:44;;;;;;;;;;;;;;;18.96;40.53;99626.41;4465223;31;33432;-71
2022/05/02 05:16:22;;;;;;;;;;;;;;;18.72;41.31;99629.13;4487975;31;33617;-73
2022/05/02 05:18:58;;;;;;;;;;;;;;;18.71;40.81;99638.25;4470671;31;33904;-73
2022/05/02 05:21:36;;;;;;;;;;;;;;;18.72;40.77;99632.69;4488279;31;34344;-71
2022/05/02 05:24:12;;;;;;;;;;;;;;;19.01;40.45;99636.75;4487986;31;34817;-71
2022/05/02 05:26:44;;;;;;;;;;;;;;;19.11;39.24;99640.13;4481259;31;33401;-72
2022/05/02 05:29:18;;;;;;;;;;;;;;;19.03;39.13;99631.97;4476169;31;34077;-75
2022/05/02 05:32:10;;;;;;;;;;;;;;;19.17;39.31;99636.72;4494056;31;33158;-72
2022/05/02 05:34:39;;;;;;;;;;;;;;;18.52;39.77;99636.72;4483581;31;33231;-72
2022/05/02 05:37:16;;;;;;;;;;;;;;;19.03;38.98;99631.97;4480540;31;33166;-75
2022/05/02 05:39:48;;;;;;;;;;;;;;;19.15;38.50;99627.91;4491567;31;35461;-72
2022/05/02 05:42:24;;;;;;;;;;;;;;;19.28;38.61;99633.63;4468737;32;34337;-72
2022/05/02 05:45:03;;;;;;;;;;;;;;;19.17;38.02;99636.72;4476168;31;32810;-70
2022/05/02 05:47:34;;;;;;;;;;;;;;;19.29;37.89;99635.34;4491733;31;32489;-71
2022/05/02 05:50:03;;;;;;;;;;;;;;;19.69;37.42;99625.38;4483106;31;32981;-71
2022/05/02 05:52:40;;;;;;;;;;;;;;;19.84;38.18;99627.34;4490226;31;34324;-71
2022/05/02 05:55:22;;;;;;;;;;;;;;;19.77;38.62;99625.38;4482998;31;35328;-71
2022/05/02 05:57:57;;;;;;;;;;;;;;;19.82;37.49;99629.41;4491531;31;33325;-71
2022/05/02 06:00:26;;;;;;;;;;;;;;;19.79;36.60;99625.16;4480668;31;34273;-70
2022/05/02 06:03:09;;;;;;;;;;;;;;;19.77;36.96;99635.34;4478659;31;35159;-70
2022/05/02 06:05:41;;;;;;;;;;;;;;;19.80;37.41;99628.72;4480568;31;34200;-71
2022/05/02 06:08:11;;;;;;;;;;;;;;;20.02;37.61;99631.50;4482952;31;32331;-70
2022/05/02 06:10:40;;;;;;;;;;;;;;;20.07;37.37;99632.84;4482252;31;34220;-72
2022/05/02 06:13:09;;;;;;;;;;;;;;;20.16;37.79;99629.03;4468225;32;34983;-70
2022/05/02 06:18:27;;;;;;;;;;;;;;;20.37;38.67;99626.53;4486698;31;33177;-70
2022/05/02 06:20:59;;;;;;;;;;;;;;;20.41;38.77;99624.28;4483284;31;34217;-68
2022/05/02 06:23:30;;;;;;;;;;;;;;;20.42;38.47;99636.88;4469572;31;32657;-70
2022/05/02 06:25:58;;;;;;;;;;;;;;;20.46;38.85;99632.75;4484969;31;32915;-71
2022/05/02 06:28:29;;;;;;;;;;;;;;;20.49;38.93;99635.09;4483850;31;31841;-72
2022/05/02 06:30:59;;;;;;;;;;;;;;;20.20;38.06;99638.53;4494679;31;34053;-68
2022/05/02 06:33:29;;;;;;;;;;;;;;;20.44;37.57;99635.63;4481266;31;34333;-69
2022/05/02 06:36:16;;;;;;;;;;;;;;;20.55;37.50;99633.56;4493652;31;33229;-69
2022/05/02 06:39:05;;;;;;;;;;;;;;;20.55;37.90;99634.41;4481790;31;33553;-71
2022/05/02 06:41:52;;;;;;;;;;;;;;;20.65;38.25;99628.72;4482555;31;34025;-69
2022/05/02 06:44:21;;;;;;;;;;;;;;;20.40;38.35;99633.47;4488521;31;34865;-70
2022/05/02 06:46:54;;;;;;;;;;;;;;;20.44;38.29;99638.34;4488033;31;34286;-70
2022/05/02 06:49:23;;;;;;;;;;;;;;;20.54;37.93;99640.03;4481420;31;33657;-72
2022/05/02 06:51:58;;;;;;;;;;;;;;;20.45;37.95;99647.38;4475513;31;33021;-69
2022/05/02 06:54:45;;;;;;;;;;;;;;;20.23;38.47;99655.31;4496568;31;34109;-70
2022/05/02 06:57:30;;;;;;;;;;;;;;;20.36;37.99;99654.75;4488544;31;34216;-70
2022/05/02 07:00:17;;;;;;;;;;;;;;;20.17;38.76;99658.75;4481303;31;34428;-70
2022/05/02 07:03:18;;;;;;;;;;;;;;;19.93;38.94;99654.28;4479108;31;34293;-70
2022/05/02 07:06:05;;;;;;;;;;;;;;;19.30;41.49;99652.47;4482419;31;32148;-70
2022/05/02 07:08:58;;;;;;;;;;;;;;;19.47;41.36;99655.97;4489266;31;35571;-70
2022/05/02 07:11:58;;;;;;;;;;;;;;;19.02;42.09;99662.84;4484628;31;33577;-71
2022/05/02 07:14:57;;;;;;;;;;;;;;;19.34;40.43;99658.37;4484864;32;32894;-69
2022/05/02 07:17:51;;;;;;;;;;;;;;;18.89;41.15;99657.94;4485012;31;34316;-69
2022/05/02 07:20:55;;;;;;;;;;;;;;;18.74;41.83;99662.34;4483444;31;33012;-71
2022/05/02 07:23:52;;;;;;;;;;;;;;;18.89;39.86;99657.09;4442606;31;35104;-70
2022/05/02 07:26:37;;;;;;;;;;;;;;;19.24;39.54;99655.88;4494046;31;35098;-69
2022/05/02 07:29:22;;;;;;;;;;;;;;;19.18;40.24;99664.69;4492262;31;33136;-68
2022/05/02 07:32:02;;;;;;;;;;;;;;;19.60;40.35;99660.84;4471420;32;33972;-69
2022/05/02 07:34:42;;;;;;;;;;;;;;;19.58;41.05;99661.00;4495705;31;31779;-72
2022/05/02 07:37:25;;;;;;;;;;;;;;;19.71;40.08;99657.78;4497181;31;34115;-69
2022/05/02 07:40:14;;;;;;;;;;;;;;;19.53;40.68;99656.13;4498378;31;33103;-69
2022/05/02 07:42:49;;;;;;;;;;;;;;;19.91;40.08;99655.50;4487708;31;32952;-68
2022/05/02 07:45:31;;;;;;;;;;;;;;;19.31;39.91;99655.00;4484651;31;33544;-70
2022/05/02 07:48:05;;;;;;;;;;;;;;;19.54;40.32;99648.81;4484192;31;32974;-68
2022/05/02 07:50:47;;;;;;;;;;;;;;;19.01;40.34;99651.16;4479070;31;34411;-69
2022/05/02 07:53:32;;;;;;;;;;;;;;;19.26;40.32;99646.53;4490541;31;33741;-69
2022/05/02 07:56:13;;;;;;;;;;;;;;;19.66;38.71;99647.47;4489140;31;33304;-68
2022/05/02 07:58:49;;;;;;;;;;;;;;;19.90;38.77;99643.81;4486783;31;32725;-69
2022/05/02 08:01:34;;;;;;;;;;;;;;;19.00;39.78;99649.44;4487778;31;33460;-69
2022/05/02 08:04:20;;;;;;;;;;;;;;;19.46;39.26;99654.28;4493991;31;33976;-69
2022/05/02 08:07:09;;;;;;;;;;;;;;;19.48;39.61;99649.50;4486871;31;32025;-69
2022/05/02 08:10:10;;;;;;;;;;;;;;;19.36;40.30;99648.19;4487337;31;32654;-69
2022/05/02 08:12:53;;;;;;;;;;;;;;;19.08;41.00;99645.88;4493463;31;34150;-69
2022/05/02 08:15:29;;;;;;;;;;;;;;;19.64;40.21;99651.37;4475912;31;32864;-69
2022/05/02 08:18:28;;;;;;;;;;;;;;;19.67;39.73;99657.28;4485666;31;33182;-69
2022/05/02 08:21:34;;;;;;;;;;;;;;;19.81;39.91;99646.69;4483379;31;34010;-69
2022/05/02 08:27:39;;;;;;;;;;;;;;;20.47;39.54;99648.03;4483757;31;33678;-70
2022/05/02 08:30:13;;;;;;;;;;;;;;;19.94;40.36;99649.72;4375699;32;32240;-68
2022/05/02 08:32:45;;;;;;;;;;;;;;;20.62;39.01;99646.25;4396186;32;33746;-69
2022/05/02 08:35:33;;;;;;;;;;;;;;;20.63;39.04;99650.66;4436736;32;33361;-68
2022/05/02 08:38:13;;;;;;;;;;;;;;;21.14;38.31;99639.16;4467663;32;34042;-69
2022/05/02 08:41:08;;;;;;;;;;;;;;;20.48;39.11;99644.28;4450683;32;31828;-70
2022/05/02 08:44:06;;;;;;;;;;;;;;;20.97;38.27;99643.91;4454266;32;35194;-71
2022/05/02 08:46:50;;;;;;;;;;;;;;;20.84;38.35;99633.66;4456319;32;34227;-68
2022/05/02 08:49:36;;;;;;;;;;;;;;;21.15;38.01;99636.28;4463544;32;32439;-70
2022/05/02 08:52:17;;;;;;;;;;;;;;;21.57;37.36;99640.25;4462276;32;32350;-64
2022/05/02 08:55:04;;;;;;;;;;;;;;;21.63;37.28;99644.94;4451173;32;34411;-66
2022/05/02 08:57:48;;;;;;;;;;;;;;;21.60;36.98;99631.72;4459595;32;35123;-68
2022/05/02 09:00:41;;;;;;;;;;;;;;;21.78;36.59;99635.91;4460101;32;33890;-69
2022/05/02 09:03:38;;;;;;;;;;;;;;;21.69;36.56;99635.16;4455472;32;31996;-69
2022/05/02 09:06:10;;;;;;;;;;;;;;;22.01;36.43;99631.16;4460153;32;35165;-67
2022/05/02 09:08:45;;;;;;;;;;;;;;;21.90;36.37;99630.84;4452687;32;35415;-67
2022/05/02 09:11:31;;;;;;;;;;;;;;;21.35;37.94;99631.16;4459337;32;34887;-66
2022/05/02 09:14:21;;;;;;;;;;;;;;;21.35;38.11;99624.88;4461580;32;34528;-67
2022/05/02 09:17:28;;;;;;;;;;;;;;;20.84;38.57;99620.06;4456045;32;32834;-70
2022/05/02 09:20:24;;;;;;;;;;;;;;;20.66;39.29;99625.81;4457312;32;34814;-68
2022/05/02 09:23:25;;;;;;;;;;;;;;;21.26;38.66;99615.91;4463758;32;34953;-67
2022/05/02 09:26:08;;;;;;;;;;;;;;;21.31;38.17;99618.88;4463642;32;32222;-67
2022/05/02 09:28:49;;;;;;;;;;;;;;;20.93;38.29;99620.84;4454053;32;32771;-67
2022/05/02 09:31:18;;;;;;;;;;;;;;;20.94;38.00;99615.19;4452106;32;33058;-65
2022/05/02 09:33:54;;;;;;;;;;;;;;;20.62;38.79;99620.94;4457313;31;35548;-66
2022/05/02 09:36:45;;;;;;;;;;;;;;;20.85;39.05;99624.47;4478828;31;33470;-68
2022/05/02 09:39:24;;;;;;;;;;;;;;;20.73;39.13;99620.50;4469768;31;32530;-66
2022/05/02 09:42:21;;;;;;;;;;;;;;;21.15;38.01;99625.38;4483640;31;34793;-66
2022/05/02 09:51:29;;;;;;;;;;;;;;;21.07;37.21;99625.44;4487931;31;33064;-65
2022/05/02 09:54:00;;;;;;;;;;;;;;;20.15;39.23;99616.47;4487726;31;34557;-66
2022/05/02 09:56:41;;;;;;;;;;;;;;;20.68;38.12;99620.22;4493070;31;33788;-68
2022/05/02 09:59:26;;;;;;;;;;;;;;;21.05;37.49;99616.62;4474517;31;31960;-66
2022/05/02 10:02:05;;;;;;;;;;;;;;;20.91;37.16;99610.13;4486775;31;34311;-66
2022/05/02 10:04:48;;;;;;;;;;;;;;;21.02;37.60;99608.81;4488842;31;34621;-66
2022/05/02 10:07:28;;;;;;;;;;;;;;;21.51;36.75;99610.19;4493085;31;34276;-64
2022/05/02 10:10:07;;;;;;;;;;;;;;;21.77;36.33;99602.38;4483518;31;34426;-66
2022/05/02 10:12:54;;;;;;;;;;;;;;;21.90;35.83;99595.41;4497732;31;34081;-67
2022/05/02 10:15:40;;;;;;;;;;;;;;;22.16;35.25;99600.34;4487819;31;34303;-66
2022/05/02 10:18:17;;;;;;;;;;;;;;;21.70;35.55;99590.56;4484264;31;34276;-67
2022/05/02 10:21:09;;;;;;;;;;;;;;;21.97;35.24;99583.53;4486161;31;33282;-68
2022/05/02 10:23:46;;;;;;;;;;;;;;;22.28;35.03;99586.00;4487916;31;33754;-70
2022/05/02 10:26:29;;;;;;;;;;;;;;;22.97;33.44;99569.00;4482896;31;33970;-68
2022/05/02 10:29:26;;;;;;;;;;;;;;;22.92;33.07;99571.47;4484401;32;33133;-70
2022/05/02 10:32:20;;;;;;;;;;;;;;;23.13;34.26;99565.13;4494176;31;33437;-69
2022/05/02 10:35:00;;;;;;;;;;;;;;;23.02;33.06;99561.06;4487709;31;33679;-69
2022/05/02 10:37:37;;;;;;;;;;;;;;;23.03;33.18;99559.19;4468913;32;33421;-69
2022/05/02 10:40:17;;;;;;;;;;;;;;;23.29;33.43;99561.22;4466456;31;34287;-71
2022/05/02 10:42:55;;;;;;;;;;;;;;;23.56;32.56;99558.63;4470059;31;33069;-69
2022/05/02 10:45:38;;;;;;;;;;;;;;;23.61;32.85;99556.97;4487238;31;33216;-69
2022/05/02 10:48:21;;;;;;;;;;;;;;;23.35;31.97;99554.94;4492455;31;33984;-69
2022/05/02 10:51:06;;;;;;;;;;;;;;;23.27;31.75;99562.47;4488689;31;34951;-68
2022/05/02 10:54:00;;;;;;;;;;;;;;;23.30;31.53;99556.59;4488918;31;32012;-68
2022/05/02 10:56:41;;;;;;;;;;;;;;;22.96;31.49;99556.41;4480962;31;34251;-69
2022/05/02 10:59:14;;;;;;;;;;;;;;;23.12;30.21;99557.97;4490921;31;34457;-67
2022/05/02 11:01:54;;;;;;;;;;;;;;;23.40;30.76;99557.94;4485464;31;34113;-69
2022/05/02 11:04:37;;;;;;;;;;;;;;;22.72;31.81;99565.00;4484500;31;33139;-70
2022/05/02 11:07:26;;;;;;;;;;;;;;;22.88;30.78;99561.97;4456234;32;33296;-68
2022/05/02 11:10:09;;;;;;;;;;;;;;;22.59;31.06;99551.25;4478755;31;33904;-68
2022/05/02 11:12:48;;;;;;;;;;;;;;;22.48;31.79;99548.03;4481495;31;34839;-69
2022/05/02 11:15:26;;;;;;;;;;;;;;;22.05;32.57;99547.12;4482303;31;34031;-70
2022/05/02 11:18:07;;;;;;;;;;;;;;;22.27;32.97;99561.66;4484425;31;32994;-70
2022/05/02 11:20:42;;;;;;;;;;;;;;;22.42;32.36;99554.25;4477660;31;34625;-69
2022/05/02 11:23:32;;;;;;;;;;;;;;;22.58;32.13;99552.31;4488446;31;33239;-68
2022/05/02 11:26:14;;;;;;;;;;;;;;;22.73;31.62;99556.63;4487593;31;34685;-67
2022/05/02 11:29:02;;;;;;;;;;;;;;;21.92;33.36;99555.19;4481234;31;33997;-68
2022/05/02 11:31:49;;;;;;;;;;;;;;;21.93;33.15;99555.00;4486820;31;32665;-70
2022/05/02 11:34:26;;;;;;;;;;;;;;;22.35;32.22;99552.53;4481690;31;34813;-69
2022/05/02 11:37:00;;;;;;;;;;;;;;;23.32;31.43;99547.16;4488475;31;33161;-68
2022/05/02 11:39:40;;;;;;;;;;;;;;;23.47;31.54;99549.78;4463594;31;33623;-68
2022/05/02 11:42:15;;;;;;;;;;;;;;;22.46;32.54;99549.25;4469496;32;33126;-68
2022/05/02 11:44:48;;;;;;;;;;;;;;;23.19;31.09;99541.63;4490998;31;33975;-68
2022/05/02 11:47:21;;;;;;;;;;;;;;;23.40;30.76;99540.69;4490406;31;34802;-69
2022/05/02 11:49:52;;;;;;;;;;;;;;;23.37;30.85;99541.09;4482661;31;34253;-69
2022/05/02 11:52:33;;;;;;;;;;;;;;;23.30;30.33;99534.75;4479172;31;34169;-68
2022/05/02 11:55:11;;;;;;;;;;;;;;;23.17;29.96;99532.78;4477396;31;34088;-69
2022/05/02 11:57:50;;;;;;;;;;;;;;;23.31;29.89;99534.56;4479739;31;32126;-67
2022/05/02 12:00:18;;;;;;;;;;;;;;;23.53;29.81;99534.44;4480532;31;34775;-67
2022/05/02 12:02:53;;;;;;;;;;;;;;;23.99;29.40;99531.91;4487070;31;35164;-68
2022/05/02 12:05:23;;;;;;;;;;;;;;;23.84;28.32;99532.06;4479820;32;34426;-69
2022/05/02 12:07:54;;;;;;;;;;;;;;;23.87;28.77;99528.91;4467956;32;31700;-69
2022/05/02 12:10:34;;;;;;;;;;;;;;;23.25;28.93;99521.72;4480948;31;34296;-68
2022/05/02 12:13:07;;;;;;;;;;;;;;;23.88;28.61;99525.16;4485109;31;34512;-68
2022/05/02 12:15:55;;;;;;;;;;;;;;;23.96;29.46;99526.84;4496825;31;32707;-68
2022/05/02 12:18:41;;;;;;;;;;;;;;;24.12;29.03;99518.25;4486848;31;32519;-69
2022/05/02 12:21:18;;;;;;;;;;;;;;;23.17;29.58;99506.34;4486375;31;34088;-68
2022/05/02 12:23:53;;;;;;;;;;;;;;;23.64;29.97;99504.66;4481924;31;33085;-68
2022/05/02 12:26:28;;;;;;;;;;;;;;;23.53;29.50;99493.47;4479831;31;34763;-68
2022/05/02 12:29:04;;;;;;;;;;;;;;;24.52;29.00;99493.66;4480978;31;32273;-69
2022/05/02 12:31:34;;;;;;;;;;;;;;;24.46;28.08;99490.94;4486645;31;34017;-69
2022/05/02 12:34:09;;;;;;;;;;;;;;;24.62;28.59;99494.09;4495857;31;34462;-68
2022/05/02 12:36:44;;;;;;;;;;;;;;;24.94;28.41;99485.19;4485142;31;33906;-67
2022/05/02 12:39:21;;;;;;;;;;;;;;;25.08;28.26;99476.75;4496326;31;32104;-67
2022/05/02 12:42:15;;;;;;;;;;;;;;;25.20;28.12;99476.09;4483534;31;33600;-69
2022/05/02 12:44:47;;;;;;;;;;;;;;;25.07;28.67;99471.47;4470545;31;32876;-69
2022/05/02 12:47:23;;;;;;;;;;;;;;;24.82;28.27;99477.66;4467460;32;32966;-67
2022/05/02 12:50:02;;;;;;;;;;;;;;;24.84;27.40;99478.25;4485871;31;31897;-68
2022/05/02 12:52:35;;;;;;;;;;;;;;;24.94;27.45;99466.03;4475599;31;34367;-67
2022/05/02 12:55:06;;;;;;;;;;;;;;;25.14;26.92;99458.66;4487351;31;32558;-67
2022/05/02 13:00:46;;;;;;;;;;;;;;;24.80;27.23;99457.84;4488343;31;32503;-66
2022/05/02 13:03:30;;;;;;;;;;;;;;;24.13;28.21;99453.47;4480347;31;34284;-67
2022/05/02 13:05:58;;;;;;;;;;;;;;;24.64;27.06;99450.09;4482479;31;33120;-70
2022/05/02 13:08:31;;;;;;;;;;;;;;;24.91;26.86;99445.44;4480426;31;33297;-68
2022/05/02 13:11:06;;;;;;;;;;;;;;;25.27;26.50;99439.41;4484788;31;32408;-68
2022/05/02 13:13:38;;;;;;;;;;;;;;;25.58;26.78;99432.28;4468335;31;33697;-68
2022/05/02 13:16:13;;;;;;;;;;;;;;;25.61;26.18;99436.50;4480114;31;35600;-68
2022/05/02 13:18:44;;;;;;;;;;;;;;;25.31;27.15;99432.44;4483539;31;34031;-70
2022/05/02 13:21:12;;;;;;;;;;;;;;;25.05;26.28;99422.41;4482950;31;33297;-69
2022/05/02 13:23:42;;;;;;;;;;;;;;;25.52;25.85;99425.81;4482376;31;34310;-67
2022/05/02 13:26:15;;;;;;;;;;;;;;;25.32;26.21;99419.56;4485878;31;34236;-68
2022/05/02 13:28:56;;;;;;;;;;;;;;;24.58;27.32;99420.84;4471604;31;32851;-72
2022/05/02 13:31:33;;;;;;;;;;;;;;;24.07;27.87;99421.50;4470227;31;32110;-68
2022/05/02 13:34:03;;;;;;;;;;;;;;;24.62;26.79;99424.84;4473547;31;33999;-67
2022/05/02 13:36:31;;;;;;;;;;;;;;;24.25;27.25;99415.41;4480184;31;33982;-67
2022/05/02 13:39:09;;;;;;;;;;;;;;;24.63;26.64;99421.91;4460354;31;33414;-68
2022/05/02 13:41:40;;;;;;;;;;;;;;;24.55;26.24;99415.81;4484154;31;36191;-68
2022/05/02 13:44:09;;;;;;;;;;;;;;;24.54;26.05;99408.66;4479811;31;33269;-69
2022/05/02 13:46:54;;;;;;;;;;;;;;;24.73;27.04;99412.41;4463231;31;36054;-67
2022/05/02 13:49:49;;;;;;;;;;;;;;;25.18;25.72;99396.91;4475478;31;33905;-69
2022/05/02 13:52:27;;;;;;;;;;;;;;;25.19;25.50;99403.22;4485401;31;32141;-69
2022/05/02 13:55:19;;;;;;;;;;;;;;;24.81;25.98;99398.47;4474079;31;33388;-70